Time;durP1;ratioP1;P1;durP2;ratioP2;P2;SDS_P1;SDS_P2;PMS_P1;PMS_P2;Temp;Humidity;BMP_temperature;BMP_pressure;BME280_temperature;BME280_humidity;BME280_pressure;Samples;Min_cycle;Max_cycle;Signal;HPM_P1;HPM_P2
2022/01/31 00:02:12;;;;;;;164.57;75.93;;;;;;;29.10;57.67;100984.47;5114560;28;20819;-80
2022/01/31 00:04:38;;;;;;;168.23;79.23;;;;;;;28.94;58.13;100980.72;5114415;28;20440;-79
2022/01/31 00:07:04;;;;;;;201.47;91.00;;;;;;;28.73;58.42;100982.19;5114596;28;20400;-79
2022/01/31 00:09:30;;;;;;;142.43;83.90;;;;;;;28.72;58.15;100974.41;5113653;28;20440;-80
2022/01/31 00:12:01;;;;;;;172.37;84.60;;;;;;;28.82;57.60;100979.94;5113751;28;20431;-80
2022/01/31 00:14:41;;;;;;;210.17;96.37;;;;;;;28.65;57.88;100975.38;5114286;28;20436;-80
2022/01/31 00:17:08;;;;;;;172.53;88.10;;;;;;;28.73;57.21;100971.53;5114071;28;20479;-80
2022/01/31 00:19:37;;;;;;;203.80;92.77;;;;;;;28.68;56.67;100959.94;5113981;28;20531;-77
2022/01/31 00:22:08;;;;;;;209.80;101.10;;;;;;;28.66;56.01;100960.16;5114203;28;20473;-79
2022/01/31 00:24:35;;;;;;;181.27;81.67;;;;;;;28.79;55.82;100959.06;5112791;28;20427;-77
2022/01/31 00:27:02;;;;;;;211.80;85.80;;;;;;;28.79;55.09;100953.72;5113889;28;21017;-77
2022/01/31 00:29:28;;;;;;;205.53;92.23;;;;;;;28.67;54.29;100956.47;5114108;28;20421;-75
2022/01/31 00:31:55;;;;;;;189.03;97.47;;;;;;;28.48;54.39;100955.03;5113964;28;20424;-74
2022/01/31 00:34:21;;;;;;;219.63;93.67;;;;;;;28.58;53.71;100966.69;5113445;28;20455;-77
2022/01/31 00:36:47;;;;;;;163.93;82.77;;;;;;;28.60;54.29;100953.13;5113657;28;20813;-77
2022/01/31 00:39:14;;;;;;;197.40;88.63;;;;;;;28.60;54.80;100953.94;5113594;28;20522;-78
2022/01/31 00:41:40;;;;;;;202.10;97.87;;;;;;;28.35;56.24;100953.44;5113940;28;20416;-77
2022/01/31 00:46:42;;;;;;;226.47;96.23;;;;;;;28.27;57.91;100951.94;5115163;27;20437;-77
2022/01/31 00:49:16;;;;;;;207.37;90.00;;;;;;;28.33;58.05;100950.22;5113610;28;20420;-78
2022/01/31 00:51:42;;;;;;;224.60;101.60;;;;;;;28.09;58.67;100944.13;5113653;28;20861;-77
2022/01/31 00:54:08;;;;;;;185.50;94.50;;;;;;;28.11;59.35;100948.19;5113260;28;20777;-78
2022/01/31 00:56:35;;;;;;;196.00;88.93;;;;;;;28.19;59.02;100952.34;5113347;28;20416;-77
2022/01/31 00:59:01;;;;;;;201.67;88.57;;;;;;;27.86;60.35;100952.97;5112947;28;20424;-78
2022/01/31 01:01:27;;;;;;;228.13;97.53;;;;;;;27.81;60.01;100948.38;5113370;28;20473;-77
2022/01/31 01:03:53;;;;;;;189.43;83.87;;;;;;;27.71;60.53;100939.34;5112783;28;20796;-78
2022/01/31 01:06:19;;;;;;;184.17;84.67;;;;;;;27.68;60.66;100945.88;5112753;28;20917;-77
2022/01/31 01:08:45;;;;;;;175.03;83.80;;;;;;;27.67;61.01;100940.81;5113096;28;20420;-77
2022/01/31 01:11:11;;;;;;;219.00;88.20;;;;;;;27.69;60.76;100933.44;5112475;28;20526;-77
2022/01/31 01:13:37;;;;;;;206.97;88.53;;;;;;;27.62;60.91;100933.50;5113056;28;20416;-75
2022/01/31 01:16:03;;;;;;;185.30;83.27;;;;;;;27.67;60.96;100933.63;5113019;28;20420;-77
2022/01/31 01:18:29;;;;;;;196.60;96.40;;;;;;;27.52;61.12;100927.97;5112751;28;20483;-76
2022/01/31 01:20:55;;;;;;;197.03;97.20;;;;;;;27.44;61.07;100929.13;5112969;28;20813;-77
2022/01/31 01:23:21;;;;;;;232.83;99.10;;;;;;;27.15;61.51;100916.72;5113370;28;20419;-77
2022/01/31 01:25:49;;;;;;;203.17;93.60;;;;;;;27.23;61.86;100919.84;5112917;28;20896;-77
2022/01/31 01:28:15;;;;;;;176.57;88.60;;;;;;;27.25;61.54;100911.63;5112935;28;20796;-77
2022/01/31 01:30:41;;;;;;;210.30;101.40;;;;;;;26.96;61.45;100910.66;5112587;28;20426;-77
2022/01/31 01:33:17;;;;;;;238.20;103.23;;;;;;;26.84;61.21;100900.00;5112815;28;20846;-77
2022/01/31 01:35:43;;;;;;;227.80;103.53;;;;;;;26.78;60.30;100906.22;5114221;28;20404;-76
2022/01/31 01:38:10;;;;;;;216.70;103.30;;;;;;;26.64;60.04;100902.13;5111945;28;20539;-77
2022/01/31 01:40:39;;;;;;;248.97;107.43;;;;;;;26.73;59.03;100898.91;5112711;28;20493;-75
2022/01/31 01:43:05;;;;;;;217.73;98.20;;;;;;;27.04;57.83;100897.81;5112526;28;20879;-75
2022/01/31 01:45:32;;;;;;;242.70;103.37;;;;;;;26.99;56.91;100897.69;5112617;28;20503;-74
2022/01/31 01:47:58;;;;;;;236.97;113.73;;;;;;;26.75;56.74;100898.69;5112527;28;20803;-74
2022/01/31 01:50:25;;;;;;;212.57;106.50;;;;;;;26.73;56.96;100898.91;5112487;28;20408;-74
2022/01/31 01:52:54;;;;;;;221.47;111.50;;;;;;;26.63;56.34;100906.63;5112445;28;20419;-75
2022/01/31 01:55:21;;;;;;;219.33;117.23;;;;;;;26.61;54.87;100906.06;5113761;28;20404;-78
2022/01/31 01:57:47;;;;;;;239.43;118.27;;;;;;;26.51;54.75;100901.28;5112329;28;20448;-77
2022/01/31 02:00:18;;;;;;;229.00;112.20;;;;;;;26.47;53.93;100894.00;5112373;28;20438;-77
2022/01/31 02:02:46;;;;;;;198.83;118.83;;;;;;;26.42;54.02;100889.34;5112242;28;20423;-80
2022/01/31 02:05:13;;;;;;;221.87;116.67;;;;;;;26.37;53.88;100889.19;5113646;28;20392;-79
2022/01/31 02:07:40;;;;;;;240.97;119.17;;;;;;;26.28;53.77;100887.91;5112115;28;20799;-78
2022/01/31 02:10:07;;;;;;;227.53;121.40;;;;;;;26.20;54.14;100886.34;5112073;28;20820;-78
2022/01/31 02:12:46;;;;;;;265.33;124.10;;;;;;;26.11;53.71;100885.03;5112157;28;20416;-77
2022/01/31 02:15:14;;;;;;;228.80;113.67;;;;;;;26.14;53.05;100884.56;5111686;28;20539;-79
2022/01/31 02:17:40;;;;;;;238.07;113.03;;;;;;;26.15;52.80;100882.72;5111225;28;20500;-80
2022/01/31 02:20:10;;;;;;;228.07;119.20;;;;;;;26.10;52.88;100880.75;5111826;28;20503;-79
2022/01/31 02:22:37;;;;;;;275.43;114.67;;;;;;;26.11;52.41;100873.59;5111232;28;20412;-77
2022/01/31 02:25:04;;;;;;;282.03;118.80;;;;;;;26.18;52.13;100879.63;5111787;28;20420;-80
2022/01/31 02:27:37;;;;;;;276.07;116.70;;;;;;;26.01;52.32;100876.78;5111711;28;20404;-80
2022/01/31 02:30:07;;;;;;;222.93;111.20;;;;;;;26.09;52.27;100876.50;5111702;28;20940;-80
2022/01/31 02:32:34;;;;;;;206.53;102.33;;;;;;;26.15;52.16;100874.75;5110766;28;20408;-77
2022/01/31 02:35:00;;;;;;;253.63;116.90;;;;;;;25.97;52.62;100873.78;5111837;28;20412;-77
2022/01/31 02:37:26;;;;;;;238.50;115.57;;;;;;;25.91;52.51;100879.97;5111122;28;21050;-77
2022/01/31 02:39:52;;;;;;;248.30;102.70;;;;;;;25.97;52.29;100873.78;5111545;28;20416;-77
2022/01/31 02:42:18;;;;;;;226.00;109.80;;;;;;;26.02;52.21;100878.38;5111379;28;20412;-77
2022/01/31 02:44:46;;;;;;;240.40;109.40;;;;;;;25.78;52.17;100877.47;5111601;28;20427;-77
2022/01/31 02:47:18;;;;;;;161.80;98.80;;;;;;;25.73;52.34;100880.00;5111502;28;20400;-77
2022/01/31 02:50:02;;;;;;;224.33;109.77;;;;;;;25.81;52.21;100879.69;5112811;28;20400;-77
2022/01/31 02:52:32;;;;;;;218.90;103.93;;;;;;;26.04;51.75;100870.22;5111323;28;20418;-77
2022/01/31 02:54:58;;;;;;;240.67;104.80;;;;;;;26.02;51.17;100875.72;5111381;28;20447;-77
2022/01/31 02:57:25;;;;;;;261.83;117.00;;;;;;;25.94;51.21;100870.72;5111149;28;20579;-77
2022/01/31 02:59:51;;;;;;;244.07;117.60;;;;;;;25.86;51.50;100873.72;5111324;28;20512;-77
2022/01/31 03:02:17;;;;;;;221.30;117.27;;;;;;;25.87;51.05;100867.34;5110807;28;20473;-80
2022/01/31 03:04:43;;;;;;;240.57;116.03;;;;;;;25.85;50.75;100872.91;5110522;28;20456;-79
2022/01/31 03:07:10;;;;;;;238.30;106.63;;;;;;;25.79;51.03;100865.81;5111122;28;20415;-79
2022/01/31 03:09:36;;;;;;;207.73;105.30;;;;;;;25.72;51.43;100870.38;5111043;28;20507;-81
2022/01/31 03:12:02;;;;;;;241.07;116.23;;;;;;;25.70;51.29;100869.75;5110423;28;21028;-79
2022/01/31 03:14:28;;;;;;;206.00;104.83;;;;;;;25.68;51.10;100869.97;5111109;28;20497;-79
2022/01/31 03:16:54;;;;;;;193.37;106.50;;;;;;;25.59;51.38;100873.94;5110705;28;20475;-79
2022/01/31 03:19:21;;;;;;;193.57;108.47;;;;;;;25.71;51.63;100868.72;5110612;28;20422;-79
2022/01/31 03:21:47;;;;;;;249.77;114.87;;;;;;;25.72;51.16;100873.03;5110309;28;20469;-77
2022/01/31 03:24:13;;;;;;;216.57;108.97;;;;;;;25.74;51.03;100873.63;5110984;28;20427;-77
2022/01/31 03:26:40;;;;;;;245.50;109.20;;;;;;;25.78;50.93;100872.16;5110836;28;20423;-80
2022/01/31 03:29:07;;;;;;;221.23;99.43;;;;;;;25.84;50.81;100871.28;5110610;28;20416;-77
2022/01/31 03:31:33;;;;;;;246.67;111.50;;;;;;;25.99;50.46;100869.03;5110935;28;20472;-77
2022/01/31 03:34:00;;;;;;;215.43;106.87;;;;;;;26.00;50.13;100877.81;5112935;28;20443;-77
2022/01/31 03:36:26;;;;;;;218.47;115.63;;;;;;;26.19;49.70;100874.09;5115053;28;20424;-77
2022/01/31 03:38:53;;;;;;;235.00;109.07;;;;;;;26.29;49.16;100876.22;5115014;28;20416;-77
2022/01/31 03:41:22;;;;;;;208.40;112.33;;;;;;;26.23;49.48;100875.25;5115042;28;20484;-77
2022/01/31 03:43:48;;;;;;;208.57;112.10;;;;;;;26.22;49.22;100878.16;5115081;28;20996;-77
2022/01/31 03:46:14;;;;;;;190.17;103.00;;;;;;;26.41;49.35;100881.59;5116262;28;20400;-80
2022/01/31 03:48:41;;;;;;;268.67;113.10;;;;;;;26.32;49.38;100874.94;5114867;28;20499;-77
2022/01/31 03:51:07;;;;;;;236.07;117.27;;;;;;;26.12;49.35;100881.34;5114923;28;20734;-77
2022/01/31 03:53:33;;;;;;;205.43;118.00;;;;;;;26.11;49.70;100874.41;5114605;28;20511;-77
2022/01/31 03:55:59;;;;;;;255.70;116.93;;;;;;;26.19;49.55;100870.63;5114778;28;20412;-74
2022/01/31 03:58:26;;;;;;;207.70;105.90;;;;;;;26.38;49.22;100869.53;5114567;28;20969;-75
2022/01/31 04:00:52;;;;;;;235.67;113.10;;;;;;;26.15;49.32;100877.41;5115911;28;20438;-74
2022/01/31 04:03:18;;;;;;;219.87;109.00;;;;;;;25.81;48.90;100863.75;5114631;28;20800;-74
2022/01/31 04:05:44;;;;;;;185.63;102.10;;;;;;;25.84;49.01;100863.31;5114487;28;20491;-74
2022/01/31 04:08:12;;;;;;;228.63;96.47;;;;;;;25.76;48.55;100854.81;5114557;28;20832;-74
2022/01/31 04:10:38;;;;;;;232.70;99.30;;;;;;;25.77;48.32;100865.19;5114458;28;20431;-73
2022/01/31 04:13:08;;;;;;;195.43;98.07;;;;;;;25.80;48.50;100856.81;5114400;28;20940;-74
2022/01/31 04:15:36;;;;;;;212.90;102.57;;;;;;;25.89;48.06;100850.13;5114459;28;20506;-74
2022/01/31 04:18:03;;;;;;;180.07;102.10;;;;;;;25.98;48.15;100859.44;5115366;28;20478;-74
2022/01/31 04:20:29;;;;;;;172.60;92.37;;;;;;;26.10;47.86;100861.34;5114415;28;20489;-74
2022/01/31 04:23:00;;;;;;;181.03;98.90;;;;;;;26.29;47.59;100856.78;5114264;28;20412;-74
2022/01/31 04:25:31;;;;;;;187.73;102.30;;;;;;;26.43;47.12;100864.38;5114288;28;21006;-74
2022/01/31 04:28:03;;;;;;;192.20;94.03;;;;;;;26.48;47.69;100867.16;5114074;28;20494;-80
2022/01/31 04:30:31;;;;;;;178.27;85.30;;;;;;;26.48;47.55;100871.69;5114168;28;20990;-80
2022/01/31 04:32:57;;;;;;;195.63;104.57;;;;;;;26.46;47.55;100874.56;5114190;28;20448;-79
2022/01/31 04:35:24;;;;;;;197.03;107.07;;;;;;;26.48;47.41;100877.81;5113851;28;20419;-77
2022/01/31 04:37:50;;;;;;;224.73;112.90;;;;;;;26.47;47.40;100884.16;5113933;28;20458;-77
2022/01/31 04:40:16;;;;;;;213.20;96.93;;;;;;;26.48;47.47;100887.63;5113763;28;20585;-77
2022/01/31 04:42:44;;;;;;;197.60;103.70;;;;;;;26.49;47.36;100891.91;5113920;28;20803;-79
2022/01/31 04:45:10;;;;;;;227.27;103.53;;;;;;;26.54;47.45;100888.59;5113146;28;20420;-80
2022/01/31 04:47:37;;;;;;;206.53;99.33;;;;;;;26.58;47.16;100901.22;5113226;28;20936;-80
2022/01/31 04:50:06;;;;;;;205.67;107.70;;;;;;;26.50;46.72;100902.31;5113669;28;20795;-81
2022/01/31 04:52:32;;;;;;;195.43;102.27;;;;;;;26.46;46.75;100900.38;5112140;28;20520;-80
2022/01/31 04:54:58;;;;;;;191.67;97.40;;;;;;;26.52;47.26;100908.25;5113659;28;20416;-80
2022/01/31 04:57:24;;;;;;;211.07;96.33;;;;;;;26.52;46.91;100896.81;5112860;28;20456;-77
2022/01/31 04:59:51;;;;;;;207.60;102.80;;;;;;;26.45;47.37;100907.50;5113068;28;20419;-77
2022/01/31 05:02:17;;;;;;;189.07;96.70;;;;;;;26.41;46.86;100911.69;5113514;28;20506;-77
2022/01/31 05:04:43;;;;;;;182.30;91.70;;;;;;;26.38;47.49;100912.06;5113142;28;20455;-77
2022/01/31 05:07:09;;;;;;;218.13;100.93;;;;;;;26.39;47.45;100913.69;5113158;28;20480;-77
2022/01/31 05:09:35;;;;;;;213.87;102.83;;;;;;;26.33;47.37;100925.22;5113411;28;20981;-79
2022/01/31 05:12:02;;;;;;;220.20;100.53;;;;;;;26.35;47.68;100920.53;5114297;28;20438;-80
2022/01/31 05:14:28;;;;;;;202.83;98.00;;;;;;;26.37;47.52;100925.59;5113272;28;20476;-80
2022/01/31 05:16:54;;;;;;;215.33;108.93;;;;;;;26.24;47.94;100926.59;5112475;28;20471;-80
2022/01/31 05:19:20;;;;;;;198.40;98.07;;;;;;;26.22;48.13;100928.69;5112572;28;20447;-77
2022/01/31 05:21:46;;;;;;;191.13;96.93;;;;;;;26.26;48.56;100924.50;5112730;28;20416;-77
2022/01/31 05:24:12;;;;;;;187.90;95.43;;;;;;;26.05;48.97;100932.97;5112912;28;20412;-77
2022/01/31 05:26:38;;;;;;;224.23;103.17;;;;;;;26.08;48.74;100935.16;5112497;28;20473;-80
2022/01/31 05:29:04;;;;;;;200.87;95.73;;;;;;;26.09;48.97;100942.13;5112819;28;20420;-80
2022/01/31 05:31:30;;;;;;;184.17;91.03;;;;;;;26.14;48.93;100947.56;5112971;28;20415;-81
2022/01/31 05:33:56;;;;;;;195.67;91.77;;;;;;;26.24;48.49;100943.34;5112231;28;20423;-81
2022/01/31 05:36:23;;;;;;;208.50;94.70;;;;;;;26.25;48.37;100949.47;5096941;28;20428;-77
2022/01/31 05:38:50;;;;;;;210.27;96.30;;;;;;;26.28;48.35;100949.06;5094326;28;20831;-77
2022/01/31 05:41:20;;;;;;;185.50;97.40;;;;;;;26.28;48.26;100954.38;5096445;28;20494;-80
2022/01/31 05:43:49;;;;;;;213.47;94.57;;;;;;;26.14;48.65;100951.03;5092511;28;20417;-80
2022/01/31 05:46:15;;;;;;;199.27;98.43;;;;;;;26.20;48.34;100944.03;5092400;28;20582;-78
2022/01/31 05:48:41;;;;;;;191.43;98.90;;;;;;;26.11;48.40;100948.03;5100844;28;20424;-78
2022/01/31 05:51:19;;;;;;;206.23;99.87;;;;;;;26.15;48.48;100950.03;5091773;28;20413;-80
2022/01/31 05:53:46;;;;;;;193.47;100.53;;;;;;;26.17;48.30;100947.13;5092056;28;20500;-82
2022/01/31 05:56:14;;;;;;;187.43;102.93;;;;;;;26.13;48.25;100956.59;5091476;28;20804;-82
2022/01/31 05:58:41;;;;;;;223.83;103.43;;;;;;;26.20;48.54;100962.63;5091686;28;20457;-82
2022/01/31 06:01:07;;;;;;;191.10;100.33;;;;;;;26.18;48.50;100965.53;5092241;28;20860;-83
2022/01/31 06:03:34;;;;;;;193.13;96.70;;;;;;;26.21;48.19;100965.09;5092123;28;20409;-77
2022/01/31 06:06:01;;;;;;;221.23;107.77;;;;;;;26.16;48.56;100978.22;5091075;28;20431;-80
2022/01/31 06:08:28;;;;;;;217.53;104.07;;;;;;;26.11;48.84;100977.28;5091370;28;20418;-79
2022/01/31 06:10:55;;;;;;;219.37;102.57;;;;;;;26.15;48.43;100976.63;5092430;28;20449;-76
2022/01/31 06:13:27;;;;;;;190.93;98.03;;;;;;;26.15;48.50;100981.94;5091095;28;20420;-82
2022/01/31 06:15:53;;;;;;;196.07;108.23;;;;;;;26.17;48.06;100990.50;5091222;28;20550;-78
2022/01/31 06:18:20;;;;;;;196.70;100.10;;;;;;;26.03;48.60;100990.88;5090599;28;20509;-78
2022/01/31 06:20:46;;;;;;;197.63;105.97;;;;;;;26.08;48.49;100993.66;5089943;28;20463;-77
2022/01/31 06:23:13;;;;;;;202.43;95.43;;;;;;;26.14;48.42;100995.41;5089784;28;20413;-78
2022/01/31 06:25:39;;;;;;;224.53;102.13;;;;;;;26.17;48.08;101000.31;5091137;28;20930;-78
2022/01/31 06:28:06;;;;;;;235.80;108.97;;;;;;;26.17;48.77;100995.00;5090850;28;20421;-76
2022/01/31 06:30:34;;;;;;;223.23;113.97;;;;;;;26.16;48.64;101007.47;5091511;28;20795;-76
2022/01/31 06:33:00;;;;;;;213.80;110.97;;;;;;;26.20;48.54;101005.16;5091461;28;20413;-74
2022/01/31 06:35:26;;;;;;;231.33;103.03;;;;;;;26.46;48.02;101010.22;5091133;28;20445;-74
2022/01/31 06:37:52;;;;;;;208.20;109.37;;;;;;;26.51;48.27;101010.34;5090485;28;21014;-76
2022/01/31 06:40:19;;;;;;;234.37;111.00;;;;;;;26.44;48.00;101022.91;5089471;28;20417;-74
2022/01/31 06:42:45;;;;;;;256.83;119.50;;;;;;;26.53;47.97;101018.13;5089489;28;20436;-76
2022/01/31 06:45:12;;;;;;;289.43;132.30;;;;;;;26.60;47.89;101020.69;5089249;28;20429;-74
2022/01/31 06:47:38;;;;;;;220.50;119.97;;;;;;;26.65;47.75;101032.28;5090535;28;21181;-75
2022/01/31 06:50:07;;;;;;;234.77;109.40;;;;;;;26.66;47.35;101033.91;5090631;28;20470;-77
2022/01/31 06:52:37;;;;;;;222.77;108.23;;;;;;;26.69;47.77;101040.63;5092056;28;20397;-77
2022/01/31 06:55:06;;;;;;;220.77;113.43;;;;;;;26.73;47.47;101042.63;5103078;28;20876;-74
2022/01/31 06:57:36;;;;;;;245.67;117.77;;;;;;;26.60;47.94;101055.28;5090904;28;21021;-75
2022/01/31 07:00:05;;;;;;;237.97;116.97;;;;;;;26.47;48.25;101059.72;5090855;28;20536;-75
2022/01/31 07:02:32;;;;;;;242.27;118.87;;;;;;;26.39;48.86;101067.94;5106907;27;20412;-85
2022/01/31 07:05:00;;;;;;;220.53;115.83;;;;;;;26.39;48.67;101075.94;5105953;28;20420;-84
2022/01/31 07:07:27;;;;;;;230.37;116.37;;;;;;;26.41;48.51;101075.75;5090675;28;20440;-85
2022/01/31 07:09:53;;;;;;;269.83;119.00;;;;;;;26.31;48.61;101084.22;5090850;28;20450;-91
2022/01/31 07:12:31;;;;;;;259.80;115.97;;;;;;;26.28;49.07;101086.53;5104758;28;20416;-85
2022/01/31 07:14:57;;;;;;;239.17;114.20;;;;;;;26.25;49.29;101095.72;5090088;28;20950;-82
2022/01/31 07:17:23;;;;;;;226.87;113.90;;;;;;;26.26;49.17;101105.31;5089968;28;21124;-81
2022/01/31 07:19:51;;;;;;;208.20;99.87;;;;;;;26.28;48.12;101107.78;5091627;28;20461;-82
2022/01/31 07:22:19;;;;;;;193.53;98.87;;;;;;;26.37;47.71;101115.25;5090142;28;20428;-82
2022/01/31 07:24:49;;;;;;;192.27;106.07;;;;;;;26.35;46.35;101116.50;5090565;28;20417;-82
2022/01/31 07:27:15;;;;;;;194.33;91.83;;;;;;;26.32;45.23;101116.94;5090257;28;21050;-81
2022/01/31 07:29:41;;;;;;;191.77;101.57;;;;;;;26.24;44.86;101120.69;5090491;28;20416;-82
2022/01/31 07:32:12;;;;;;;208.57;96.90;;;;;;;26.29;43.59;101118.19;5090238;28;20448;-82
2022/01/31 07:34:40;;;;;;;194.33;95.83;;;;;;;26.35;43.27;101127.97;5089994;28;20479;-81
2022/01/31 07:37:06;;;;;;;179.27;92.10;;;;;;;26.47;42.44;101130.72;5106689;28;20460;-82
2022/01/31 07:39:33;;;;;;;165.80;83.90;;;;;;;26.58;42.50;101135.31;5110722;28;20408;-82
2022/01/31 07:41:59;;;;;;;199.93;83.73;;;;;;;26.65;42.04;101133.41;5105144;28;20481;-83
2022/01/31 07:44:25;;;;;;;180.57;92.80;;;;;;;26.64;41.33;101134.44;5089380;28;20452;-82
2022/01/31 07:46:52;;;;;;;194.17;87.90;;;;;;;26.67;41.48;101139.31;5099640;28;20481;-80
2022/01/31 07:49:21;;;;;;;160.30;89.30;;;;;;;26.78;41.15;101141.22;5110085;28;20485;-79
2022/01/31 07:51:47;;;;;;;194.23;88.03;;;;;;;26.66;40.95;101136.88;5109957;28;20450;-80
2022/01/31 07:54:13;;;;;;;165.80;87.27;;;;;;;26.63;41.20;101135.44;5110127;28;20420;-81
2022/01/31 07:56:39;;;;;;;155.90;83.17;;;;;;;26.83;41.45;101143.22;5089938;28;20954;-78
2022/01/31 07:59:05;;;;;;;150.90;76.23;;;;;;;26.97;41.29;101147.34;5093768;28;20435;-76
2022/01/31 08:01:31;;;;;;;172.63;89.50;;;;;;;26.87;40.83;101149.72;5090902;28;20424;-76
2022/01/31 08:03:57;;;;;;;186.50;87.63;;;;;;;26.88;41.22;101150.53;5089423;28;20429;-76
2022/01/31 08:06:23;;;;;;;184.50;94.17;;;;;;;26.94;41.26;101149.63;5090042;28;21016;-77
2022/01/31 08:08:50;;;;;;;185.30;86.53;;;;;;;26.82;41.10;101159.41;5089311;28;20425;-76
2022/01/31 08:11:16;;;;;;;195.83;90.00;;;;;;;26.96;41.03;101153.72;5089955;28;20460;-74
2022/01/31 08:13:42;;;;;;;193.87;84.30;;;;;;;27.04;39.76;101156.06;5089622;28;20421;-77
2022/01/31 08:18:37;;;;;;;171.33;86.77;;;;;;;27.31;39.58;101150.41;5091387;28;20490;-76
2022/01/31 08:21:03;;;;;;;159.10;83.03;;;;;;;27.36;38.35;101153.22;5092564;28;20439;-79
2022/01/31 08:23:30;;;;;;;179.00;83.73;;;;;;;27.26;37.76;101166.28;5093819;28;20429;-77
2022/01/31 08:25:59;;;;;;;158.53;76.67;;;;;;;27.29;36.87;101161.31;5093928;28;20456;-77
2022/01/31 08:28:33;;;;;;;161.57;85.63;;;;;;;27.38;36.11;101164.47;5095191;28;20389;-78
2022/01/31 08:31:07;;;;;;;168.87;89.00;;;;;;;27.25;34.81;101167.28;5093801;28;20420;-78
2022/01/31 08:33:42;;;;;;;154.37;82.90;;;;;;;27.27;36.07;101171.38;5093606;28;20433;-75
2022/01/31 08:36:09;;;;;;;158.07;88.17;;;;;;;27.16;36.74;101163.34;5101155;28;20430;-77
2022/01/31 08:38:38;;;;;;;146.00;80.53;;;;;;;27.28;35.94;101164.19;5114438;28;20482;-78
2022/01/31 08:41:04;;;;;;;170.40;95.80;;;;;;;27.34;35.87;101160.63;5105048;28;20516;-79
2022/01/31 08:43:31;;;;;;;164.90;86.37;;;;;;;27.29;35.92;101155.16;5093138;28;20935;-80
2022/01/31 08:45:57;;;;;;;170.47;89.20;;;;;;;27.33;35.35;101161.66;5092736;28;20436;-78
2022/01/31 08:48:25;;;;;;;147.90;80.53;;;;;;;27.39;35.08;101154.63;5093270;28;20428;-80
2022/01/31 08:50:53;;;;;;;148.73;83.70;;;;;;;27.58;34.88;101150.88;5094782;28;20524;-77
2022/01/31 08:53:19;;;;;;;135.13;74.57;;;;;;;27.82;34.56;101154.44;5113657;28;20434;-77
2022/01/31 08:55:54;;;;;;;182.67;79.17;;;;;;;27.69;35.06;101159.97;5099064;28;20425;-77
2022/01/31 08:58:22;;;;;;;163.53;81.63;;;;;;;27.21;32.36;101163.47;5093460;28;20460;-78
2022/01/31 09:00:57;;;;;;;141.73;80.43;;;;;;;27.14;32.28;101160.09;5093311;28;20475;-81
2022/01/31 09:04:00;;;;;;;142.00;76.47;;;;;;;27.28;31.23;101153.53;5093269;28;20412;-80
2022/01/31 09:06:12;;;;;;;146.90;82.57;;;;;;;27.33;30.75;101152.88;5093665;28;20444;-80
2022/01/31 09:08:39;;;;;;;167.00;79.67;;;;;;;27.07;30.98;101157.50;5104173;27;20411;-81
2022/01/31 09:11:05;;;;;;;143.53;81.37;;;;;;;27.25;30.63;101153.97;5092948;28;20444;-80
2022/01/31 09:13:32;;;;;;;157.50;77.13;;;;;;;27.47;27.76;101162.28;5092989;28;20413;-83
2022/01/31 09:15:59;;;;;;;121.33;66.70;;;;;;;27.76;28.21;101158.81;5092542;28;20459;-83
2022/01/31 09:18:25;;;;;;;109.47;69.30;;;;;;;28.28;25.99;101155.50;5092627;28;20504;-83
2022/01/31 09:20:51;;;;;;;101.13;58.17;;;;;;;28.11;25.22;101150.88;5093153;28;20424;-83
2022/01/31 09:23:18;;;;;;;126.40;72.53;;;;;;;27.59;25.05;101152.47;5091810;28;20503;-83
2022/01/31 09:25:46;;;;;;;152.77;81.97;;;;;;;27.66;26.79;101155.03;5091754;28;20429;-83
2022/01/31 09:28:12;;;;;;;124.63;68.00;;;;;;;28.14;26.79;101148.78;5092200;28;20447;-83
2022/01/31 09:30:39;;;;;;;174.63;83.73;;;;;;;28.07;26.80;101155.03;5092625;28;20412;-83
2022/01/31 09:33:06;;;;;;;164.63;71.77;;;;;;;28.37;26.42;101144.28;5092712;28;20445;-82
2022/01/31 09:35:36;;;;;;;160.40;78.83;;;;;;;28.35;26.26;101146.34;5092618;28;20413;-83
2022/01/31 09:38:04;;;;;;;134.20;71.47;;;;;;;27.90;25.43;101151.41;5092536;28;20468;-82
2022/01/31 09:40:30;;;;;;;112.57;62.93;;;;;;;27.74;26.13;101150.22;5092536;28;20449;-83
2022/01/31 09:43:27;;;;;;;127.73;71.63;;;;;;;27.73;26.69;101151.25;5092588;28;20810;-82
2022/01/31 09:51:12;;;;;;;190.57;82.67;;;;;;;28.44;27.98;101138.81;5093795;28;20462;-83
2022/01/31 09:53:47;;;;;;;128.60;63.27;;;;;;;28.74;27.77;101138.66;5092464;28;20420;-83
2022/01/31 09:56:16;;;;;;;147.67;69.07;;;;;;;28.46;27.74;101131.38;5092162;28;20416;-82
2022/01/31 09:58:43;;;;;;;129.47;65.67;;;;;;;28.30;27.54;101138.22;5092120;28;20465;-80
2022/01/31 10:01:25;;;;;;;158.93;68.90;;;;;;;28.68;28.07;101133.44;5093135;28;20424;-83
2022/01/31 10:03:53;;;;;;;153.87;72.03;;;;;;;28.91;26.68;101128.84;5091772;28;20421;-83
2022/01/31 10:06:39;;;;;;;124.73;58.77;;;;;;;29.12;25.90;101126.59;5093411;28;20409;-83
2022/01/31 10:09:22;;;;;;;180.07;68.03;;;;;;;28.56;26.44;101120.13;5092124;28;20907;-83
2022/01/31 10:12:06;;;;;;;151.10;65.90;;;;;;;28.62;27.23;101120.00;5095114;28;20510;-82
2022/01/31 10:17:31;;;;;;;153.13;69.00;;;;;;;29.45;26.77;101117.81;5094745;28;21024;-83
2022/01/31 10:20:00;;;;;;;132.63;67.70;;;;;;;29.27;26.60;101126.03;5095624;28;20409;-82
2022/01/31 10:22:31;;;;;;;150.73;70.90;;;;;;;29.05;27.35;101116.06;5094985;28;20448;-82
2022/01/31 10:25:01;;;;;;;149.37;67.60;;;;;;;29.29;26.57;101126.63;5092004;28;20424;-83
2022/01/31 10:27:33;;;;;;;166.53;82.17;;;;;;;29.17;27.55;101124.81;5091454;28;20529;-83
2022/01/31 10:30:12;;;;;;;175.63;77.97;;;;;;;29.48;27.02;101114.69;5091593;28;20497;-83
2022/01/31 10:32:41;;;;;;;145.50;72.23;;;;;;;29.68;27.86;101117.72;5091280;28;20459;-82
2022/01/31 10:35:11;;;;;;;140.87;71.80;;;;;;;29.50;26.25;101119.78;5091465;28;20521;-83
2022/01/31 10:37:40;;;;;;;159.70;72.80;;;;;;;28.68;27.33;101117.44;5092149;28;20492;-82
2022/01/31 10:56:59;;;;;;;155.53;71.93;;;;;;;29.40;25.88;101085.66;5075879;28;20984;-83
2022/01/31 10:59:27;;;;;;;140.30;67.67;;;;;;;29.52;26.47;101077.59;5090874;28;20448;-83
2022/01/31 11:01:56;;;;;;;133.93;68.30;;;;;;;29.42;25.16;101078.22;5094517;27;20482;-83
2022/01/31 11:04:24;;;;;;;178.57;75.93;;;;;;;29.40;25.33;101067.78;5113434;27;20420;-83
2022/01/31 11:06:58;;;;;;;153.37;74.43;;;;;;;29.25;25.16;101064.84;5111070;28;20454;-83
2022/01/31 11:09:24;;;;;;;138.10;61.10;;;;;;;29.60;25.43;101061.97;5112622;28;20404;-83
2022/01/31 11:11:51;;;;;;;169.90;78.07;;;;;;;30.03;25.17;101059.66;5093802;28;20467;-83
2022/01/31 11:14:17;;;;;;;158.90;67.67;;;;;;;30.16;23.80;101054.78;5089916;28;20452;-81
2022/01/31 11:16:45;;;;;;;143.57;65.23;;;;;;;30.43;24.38;101035.31;5091965;28;20411;-81
2022/01/31 11:19:15;;;;;;;136.43;74.77;;;;;;;30.80;23.79;101031.97;5090180;28;20822;-81
2022/01/31 11:21:44;;;;;;;181.00;78.37;;;;;;;30.77;23.34;101033.31;5090552;28;20871;-81
2022/01/31 11:24:31;;;;;;;155.90;71.63;;;;;;;31.08;23.58;101034.41;5090722;28;20516;-82
2022/01/31 11:27:12;;;;;;;119.03;58.70;;;;;;;30.96;23.48;101023.84;5090828;28;20424;-82
2022/01/31 11:29:43;;;;;;;160.03;67.23;;;;;;;30.74;23.37;101017.72;5091979;28;20504;-81
2022/01/31 11:32:10;;;;;;;147.57;68.77;;;;;;;30.60;23.49;101019.97;5090224;28;20794;-81
2022/01/31 11:34:46;;;;;;;145.13;71.17;;;;;;;30.83;23.79;101007.38;5090545;28;20510;-84